Time;durP1;ratioP1;P1;durP2;ratioP2;P2;SDS_P1;SDS_P2;PMS_P1;PMS_P2;Temp;Humidity;BMP_temperature;BMP_pressure;BME280_temperature;BME280_humidity;BME280_pressure;Samples;Min_cycle;Max_cycle;Signal;HPM_P1;HPM_P2
2023/01/11 00:01:21;;;;;;;1.20;1.10;;;8.10;99.90;;;;;;5013765;28;20425;-71
2023/01/11 00:03:48;;;;;;;0.98;0.98;;;8.20;99.90;;;;;;5009341;28;20440;-70
2023/01/11 00:06:14;;;;;;;1.10;0.80;;;8.20;99.90;;;;;;5023843;28;20606;-72
2023/01/11 00:08:41;;;;;;;0.90;0.90;;;8.30;99.90;;;;;;5030448;28;20432;-72
2023/01/11 00:11:13;;;;;;;0.75;0.70;;;8.30;99.90;;;;;;5029762;28;21212;-71
2023/01/11 00:13:40;;;;;;;0.90;0.60;;;8.30;99.90;;;;;;5029170;28;21328;-71
2023/01/11 00:16:09;;;;;;;0.70;0.70;;;8.30;99.90;;;;;;5016675;28;21281;-70
2023/01/11 00:18:36;;;;;;;1.15;0.70;;;8.30;99.90;;;;;;5010183;28;20412;-71
2023/01/11 00:21:04;;;;;;;1.00;0.80;;;8.30;99.90;;;;;;5019645;28;20449;-71
2023/01/11 00:23:31;;;;;;;1.60;0.80;;;8.30;99.90;;;;;;5029439;28;20457;-71
2023/01/11 00:25:58;;;;;;;0.90;0.80;;;8.40;99.90;;;;;;5022962;28;20435;-71
2023/01/11 00:28:24;;;;;;;0.90;0.70;;;8.40;99.90;;;;;;5025836;28;20505;-70
2023/01/11 00:30:51;;;;;;;0.70;0.70;;;8.40;99.90;;;;;;5011011;28;20925;-72
2023/01/11 00:33:19;;;;;;;0.82;0.70;;;8.40;99.90;;;;;;5011084;28;20441;-72
2023/01/11 00:35:46;;;;;;;1.30;0.80;;;8.50;99.90;;;;;;5025823;28;20445;-70
2023/01/11 00:38:42;;;;;;;0.90;0.65;;;8.50;99.90;;;;;;5049647;28;20417;-72
2023/01/11 00:47:55;;;;;;;0.80;0.70;;;8.50;99.90;;;;;;5053334;28;20449;-71
2023/01/11 00:49:16;;;;;;;0.80;0.70;;;8.60;99.90;;;;;;5028151;28;20430;-71
2023/01/11 00:51:43;;;;;;;0.70;0.60;;;8.60;99.90;;;;;;5032721;28;20415;-71
2023/01/11 00:54:10;;;;;;;0.70;0.70;;;8.70;99.90;;;;;;5033630;28;20437;-71
2023/01/11 00:56:37;;;;;;;0.90;0.80;;;8.70;99.90;;;;;;5012815;28;20417;-72
2023/01/11 00:59:04;;;;;;;0.75;0.75;;;8.70;99.90;;;;;;5013283;28;20444;-71
2023/01/11 01:01:31;;;;;;;0.80;0.80;;;8.70;99.80;;;;;;5010720;28;20451;-71
2023/01/11 01:04:00;;;;;;;0.70;0.70;;;8.80;99.90;;;;;;5022705;28;20438;-71
2023/01/11 01:06:29;;;;;;;0.80;0.70;;;8.80;99.60;;;;;;5024077;28;20427;-71
2023/01/11 01:08:56;;;;;;;0.90;0.70;;;8.80;99.70;;;;;;5032741;28;20417;-71
2023/01/11 01:11:22;;;;;;;0.80;0.70;;;8.90;99.90;;;;;;5034724;28;20425;-71
2023/01/11 01:16:35;;;;;;;0.90;0.80;;;8.90;99.50;;;;;;5017142;28;20436;-72
2023/01/11 01:19:02;;;;;;;0.70;0.70;;;9.00;99.60;;;;;;5042554;23;20422;-72
2023/01/11 01:21:30;;;;;;;1.20;1.10;;;8.90;99.70;;;;;;5048658;28;20429;-71
2023/01/11 01:23:57;;;;;;;0.73;0.73;;;9.00;99.80;;;;;;5049590;28;20440;-71
2023/01/11 01:26:24;;;;;;;1.40;1.30;;;9.00;99.90;;;;;;5049944;28;20421;-71
2023/01/11 01:28:51;;;;;;;0.90;0.90;;;9.00;99.90;;;;;;5048978;28;20449;-73
2023/01/11 01:31:17;;;;;;;1.02;0.88;;;9.00;99.80;;;;;;5029983;28;20442;-72
2023/01/11 01:33:44;;;;;;;0.90;0.80;;;9.10;99.80;;;;;;5028188;28;20426;-71
2023/01/11 01:36:11;;;;;;;0.77;0.73;;;9.10;99.80;;;;;;5029187;28;20800;-73
2023/01/11 01:38:39;;;;;;;0.70;0.70;;;9.10;99.70;;;;;;5023487;28;20924;-73
2023/01/11 01:41:06;;;;;;;0.65;0.40;;;9.10;99.60;;;;;;5030510;28;20443;-71
2023/01/11 01:43:50;;;;;;;1.10;0.50;;;9.20;99.60;;;;;;5028811;28;20442;-71
2023/01/11 01:46:18;;;;;;;0.70;0.50;;;9.10;99.60;;;;;;5030118;28;20468;-71
2023/01/11 01:48:51;;;;;;;0.70;0.50;;;9.20;99.60;;;;;;5029075;28;20511;-71
2023/01/11 01:51:23;;;;;;;0.80;0.50;;;9.20;99.90;;;;;;5028841;28;20473;-73
2023/01/11 01:53:55;;;;;;;0.80;0.40;;;9.10;99.80;;;;;;5029241;28;20411;-73
2023/01/11 01:56:27;;;;;;;0.68;0.50;;;9.10;99.70;;;;;;5030215;28;20486;-73
2023/01/11 01:58:57;;;;;;;0.80;0.50;;;9.20;99.90;;;;;;5027838;28;20411;-72
2023/01/11 02:04:12;;;;;;;0.90;0.50;;;9.20;99.90;;;;;;5028131;28;20536;-73
2023/01/11 02:06:39;;;;;;;0.73;0.50;;;9.20;99.90;;;;;;5030000;28;20428;-71
2023/01/11 02:09:18;;;;;;;0.80;0.50;;;9.20;99.90;;;;;;5029486;28;21090;-72
2023/01/11 02:11:45;;;;;;;0.70;0.40;;;9.20;99.90;;;;;;5028728;28;20415;-72
2023/01/11 02:14:16;;;;;;;0.70;0.40;;;9.20;99.90;;;;;;5028796;28;20842;-72
2023/01/11 02:16:43;;;;;;;0.70;0.40;;;9.20;99.90;;;;;;5028806;28;21143;-71
2023/01/11 02:19:19;;;;;;;0.70;0.40;;;9.20;99.90;;;;;;5028409;28;20525;-72
2023/01/11 02:22:06;;;;;;;0.60;0.40;;;9.20;99.90;;;;;;5033286;28;20441;-72
2023/01/11 02:25:09;;;;;;;0.50;0.40;;;9.20;99.90;;;;;;5039028;28;20427;-72
2023/01/11 02:27:57;;;;;;;0.90;0.68;;;9.30;99.90;;;;;;5037936;28;20521;-72
2023/01/11 02:30:31;;;;;;;0.60;0.40;;;9.30;99.90;;;;;;5030553;28;20434;-72
2023/01/11 02:33:08;;;;;;;0.70;0.50;;;9.40;99.90;;;;;;5031054;28;20429;-72
2023/01/11 02:35:49;;;;;;;0.70;0.40;;;9.30;99.90;;;;;;5032818;28;20506;-70
2023/01/11 02:38:23;;;;;;;0.60;0.50;;;9.30;99.90;;;;;;5038192;28;20487;-71
2023/01/11 02:40:56;;;;;;;1.65;0.40;;;9.30;99.90;;;;;;5041112;28;20429;-70
2023/01/11 02:46:28;;;;;;;0.88;0.40;;;9.30;99.90;;;;;;4970766;28;20983;-71
2023/01/11 02:49:01;;;;;;;1.20;0.50;;;9.40;99.90;;;;;;5034862;28;20695;-72
2023/01/11 02:51:36;;;;;;;0.90;0.50;;;9.30;99.90;;;;;;5040921;28;20419;-72
2023/01/11 02:54:07;;;;;;;0.80;0.50;;;9.30;99.90;;;;;;5036807;28;20418;-73
2023/01/11 02:56:38;;;;;;;0.80;0.50;;;9.30;99.90;;;;;;5040108;28;20419;-71
2023/01/11 02:59:10;;;;;;;0.70;0.45;;;9.40;99.90;;;;;;5036429;28;20430;-71
2023/01/11 03:01:44;;;;;;;0.90;0.50;;;9.40;99.90;;;;;;5028995;28;20445;-71
2023/01/11 03:04:22;;;;;;;1.00;0.60;;;9.40;99.90;;;;;;5025250;28;20917;-71
2023/01/11 03:06:54;;;;;;;1.40;0.50;;;9.40;99.90;;;;;;5028535;28;20415;-73
2023/01/11 03:09:26;;;;;;;1.00;0.45;;;9.40;99.90;;;;;;5029222;28;20457;-73
2023/01/11 03:15:07;;;;;;;0.80;0.50;;;9.40;99.90;;;;;;5030175;28;20534;-71
2023/01/11 03:17:45;;;;;;;0.90;0.60;;;9.30;99.90;;;;;;5030953;28;20502;-73
2023/01/11 03:20:20;;;;;;;0.75;0.60;;;9.20;99.90;;;;;;5039750;28;20418;-72
2023/01/11 03:23:01;;;;;;;1.10;0.60;;;9.10;99.90;;;;;;5041352;28;20414;-72
2023/01/11 03:25:34;;;;;;;0.70;0.50;;;9.00;99.90;;;;;;5037240;28;20503;-72
2023/01/11 03:28:09;;;;;;;0.70;0.70;;;9.00;99.90;;;;;;5043427;28;20434;-73
2023/01/11 03:30:46;;;;;;;0.70;0.50;;;8.90;99.90;;;;;;5044615;28;20452;-73
2023/01/11 03:33:19;;;;;;;0.82;0.40;;;8.90;99.90;;;;;;5044894;28;20438;-73
2023/01/11 03:35:52;;;;;;;0.70;0.40;;;8.90;99.90;;;;;;5045445;28;20419;-70
2023/01/11 03:38:24;;;;;;;0.60;0.50;;;8.90;99.90;;;;;;5042383;28;20440;-71
2023/01/11 03:40:55;;;;;;;0.80;0.50;;;8.90;99.90;;;;;;5042875;28;20422;-72
2023/01/11 03:43:24;;;;;;;0.60;0.50;;;8.90;99.90;;;;;;5038320;28;20422;-72
2023/01/11 03:45:55;;;;;;;0.73;0.50;;;8.90;99.90;;;;;;5036833;28;20891;-72
2023/01/11 03:48:29;;;;;;;1.48;0.80;;;8.90;99.90;;;;;;5036709;28;20437;-73
2023/01/11 03:50:57;;;;;;;0.70;0.50;;;8.90;99.90;;;;;;5043619;28;20415;-72
2023/01/11 03:53:26;;;;;;;0.80;0.50;;;8.90;99.90;;;;;;5049197;28;20478;-72
2023/01/11 03:55:55;;;;;;;0.90;0.60;;;8.90;99.90;;;;;;5049348;28;20467;-71
2023/01/11 03:58:23;;;;;;;1.10;0.50;;;9.00;99.90;;;;;;5047984;28;20422;-74
2023/01/11 04:00:50;;;;;;;1.20;0.50;;;9.00;99.90;;;;;;5045995;28;20434;-71
2023/01/11 04:03:18;;;;;;;0.60;0.47;;;9.00;99.90;;;;;;5047286;28;20426;-72
2023/01/11 04:05:50;;;;;;;0.80;0.50;;;9.10;99.90;;;;;;5038049;28;20430;-72
2023/01/11 04:08:17;;;;;;;1.00;0.57;;;9.00;99.90;;;;;;5031519;28;20415;-72
2023/01/11 04:10:44;;;;;;;1.33;0.52;;;9.00;99.90;;;;;;5031226;28;20542;-72
2023/01/11 04:13:10;;;;;;;0.80;0.50;;;8.90;99.90;;;;;;5028565;28;20423;-72
2023/01/11 04:15:37;;;;;;;2.20;0.70;;;8.90;99.90;;;;;;5031665;28;20435;-72
2023/01/11 04:18:04;;;;;;;0.85;0.52;;;8.90;99.90;;;;;;5030659;28;20426;-72
2023/01/11 04:20:34;;;;;;;1.40;0.70;;;8.80;99.90;;;;;;5030360;28;20909;-72
2023/01/11 04:23:01;;;;;;;1.08;0.65;;;8.90;99.90;;;;;;5029187;28;20423;-71
2023/01/11 04:25:27;;;;;;;0.82;0.60;;;8.80;99.90;;;;;;5029516;28;20525;-72
2023/01/11 04:27:54;;;;;;;1.00;0.60;;;8.90;99.90;;;;;;5029955;28;20410;-73
2023/01/11 04:30:21;;;;;;;0.85;0.60;;;8.80;99.90;;;;;;5029148;28;20446;-72
2023/01/11 04:32:48;;;;;;;0.90;0.50;;;8.90;99.90;;;;;;5029538;28;20426;-72
2023/01/11 04:35:15;;;;;;;0.95;0.70;;;8.80;99.90;;;;;;5030230;28;20510;-73
2023/01/11 04:37:43;;;;;;;1.20;0.70;;;8.80;99.90;;;;;;5029905;28;20422;-71
2023/01/11 04:40:11;;;;;;;1.67;0.70;;;8.80;99.90;;;;;;5030480;28;20431;-72
2023/01/11 04:42:37;;;;;;;1.60;0.80;;;8.90;99.90;;;;;;5027771;28;20426;-70
2023/01/11 04:45:05;;;;;;;1.05;0.63;;;8.90;99.90;;;;;;5030607;28;20434;-72
2023/01/11 04:47:32;;;;;;;1.20;0.50;;;8.90;99.90;;;;;;5030341;28;20429;-72
2023/01/11 04:49:59;;;;;;;1.20;0.70;;;8.80;99.90;;;;;;5029605;28;20423;-72
2023/01/11 04:52:25;;;;;;;1.77;0.70;;;8.90;99.90;;;;;;5029614;28;20423;-70
2023/01/11 04:54:54;;;;;;;0.82;0.70;;;8.90;99.90;;;;;;5028984;28;20434;-72
2023/01/11 04:57:21;;;;;;;0.80;0.60;;;8.90;99.90;;;;;;5030216;28;20456;-72
2023/01/11 04:59:48;;;;;;;1.00;0.70;;;8.90;99.90;;;;;;5030473;28;20541;-72
2023/01/11 05:02:16;;;;;;;2.00;0.70;;;9.00;99.90;;;;;;5030826;28;20426;-71
2023/01/11 05:04:42;;;;;;;1.10;0.60;;;9.00;99.90;;;;;;5034940;28;20434;-73
2023/01/11 05:07:10;;;;;;;2.70;0.70;;;9.00;99.90;;;;;;5033430;28;20507;-70
2023/01/11 05:09:37;;;;;;;1.10;0.70;;;9.00;99.90;;;;;;5025539;28;20451;-72
2023/01/11 05:12:05;;;;;;;1.40;0.70;;;9.10;99.90;;;;;;5024010;28;20423;-72
2023/01/11 05:14:32;;;;;;;1.73;0.70;;;9.20;99.90;;;;;;5020407;28;20442;-72
2023/01/11 05:16:59;;;;;;;1.33;0.75;;;9.20;99.90;;;;;;5032365;28;20440;-70
2023/01/11 05:19:26;;;;;;;1.38;0.60;;;9.30;99.90;;;;;;5033446;28;20525;-70
2023/01/11 05:21:52;;;;;;;1.40;0.60;;;9.30;99.90;;;;;;5032121;28;20459;-70
2023/01/11 05:24:19;;;;;;;0.90;0.60;;;9.30;99.90;;;;;;5032164;28;20427;-72
2023/01/11 05:26:47;;;;;;;1.65;0.65;;;9.40;99.90;;;;;;5038185;28;20438;-73
2023/01/11 05:29:16;;;;;;;1.20;0.60;;;9.40;99.90;;;;;;5035575;28;20419;-70
2023/01/11 05:31:42;;;;;;;1.50;0.60;;;9.40;99.90;;;;;;5031672;28;20490;-72
2023/01/11 05:34:12;;;;;;;0.90;0.60;;;9.40;99.90;;;;;;5026243;28;20431;-71
2023/01/11 05:36:39;;;;;;;0.80;0.47;;;9.50;99.90;;;;;;5031799;28;20429;-72
2023/01/11 05:39:06;;;;;;;1.50;0.52;;;9.50;99.90;;;;;;5029605;28;20422;-70
2023/01/11 05:41:33;;;;;;;1.17;0.60;;;9.50;99.90;;;;;;5027807;28;20429;-70
2023/01/11 05:46:45;;;;;;;1.30;0.57;;;9.50;99.90;;;;;;5016554;28;20412;-71
2023/01/11 05:49:13;;;;;;;2.10;0.70;;;9.50;99.90;;;;;;5027070;28;20883;-70
2023/01/11 05:51:41;;;;;;;1.00;0.40;;;9.50;99.90;;;;;;5027726;28;20423;-71
2023/01/11 05:54:10;;;;;;;1.55;0.70;;;9.50;99.90;;;;;;5025914;28;20438;-67
2023/01/11 05:56:37;;;;;;;1.80;0.50;;;9.60;99.90;;;;;;5024547;28;20445;-68
2023/01/11 05:59:04;;;;;;;1.20;0.50;;;9.60;99.90;;;;;;5025539;28;20434;-68
2023/01/11 06:01:31;;;;;;;0.85;0.50;;;9.60;99.90;;;;;;5027980;28;20422;-71
2023/01/11 06:03:59;;;;;;;1.00;0.52;;;9.60;99.90;;;;;;5024884;28;20441;-69
2023/01/11 06:06:26;;;;;;;1.70;0.60;;;9.60;99.90;;;;;;5027866;28;20581;-71
2023/01/11 06:08:52;;;;;;;0.85;0.50;;;9.60;99.90;;;;;;5026424;28;20419;-68
2023/01/11 06:11:19;;;;;;;0.93;0.50;;;9.60;99.90;;;;;;5009831;28;20424;-72
2023/01/11 06:13:46;;;;;;;0.90;0.50;;;9.60;99.90;;;;;;5025678;28;20423;-69
2023/01/11 06:16:15;;;;;;;0.90;0.60;;;9.60;99.90;;;;;;5024059;28;20431;-72
2023/01/11 06:18:44;;;;;;;1.10;0.60;;;9.60;99.90;;;;;;5022228;28;20454;-73
2023/01/11 06:21:13;;;;;;;1.45;0.73;;;9.70;99.90;;;;;;5027344;28;20426;-71
2023/01/11 06:23:41;;;;;;;2.00;0.70;;;9.70;99.90;;;;;;5023646;28;20458;-70
2023/01/11 06:26:10;;;;;;;1.27;0.68;;;9.70;99.90;;;;;;5017791;28;20430;-70
2023/01/11 06:28:37;;;;;;;2.90;0.80;;;9.70;99.90;;;;;;5026946;28;20438;-70
2023/01/11 06:31:05;;;;;;;0.82;0.50;;;9.70;99.90;;;;;;5028011;28;20440;-73
2023/01/11 06:33:33;;;;;;;1.75;0.90;;;9.70;99.90;;;;;;5025092;28;20449;-71
2023/01/11 06:36:03;;;;;;;1.63;0.90;;;9.70;99.90;;;;;;5027540;28;20995;-71
2023/01/11 06:38:31;;;;;;;1.70;0.80;;;9.70;99.90;;;;;;5032264;28;20434;-71
2023/01/11 06:41:00;;;;;;;1.77;0.93;;;9.80;99.90;;;;;;5027625;28;20435;-70
2023/01/11 06:43:28;;;;;;;2.30;0.90;;;9.80;99.90;;;;;;5013736;28;20442;-70
2023/01/11 06:45:55;;;;;;;1.88;0.90;;;9.80;99.90;;;;;;5027335;28;21139;-71
2023/01/11 06:48:23;;;;;;;2.38;1.10;;;9.80;99.90;;;;;;5027412;28;20419;-69
2023/01/11 06:50:52;;;;;;;2.03;0.93;;;9.80;99.90;;;;;;5026009;28;20430;-69
2023/01/11 06:53:19;;;;;;;2.03;1.00;;;9.80;99.90;;;;;;5015915;28;20431;-71
2023/01/11 06:55:49;;;;;;;4.93;1.30;;;9.80;99.90;;;;;;5024074;28;20438;-71
2023/01/11 06:58:16;;;;;;;3.47;1.50;;;9.80;99.90;;;;;;5022235;28;20498;-71
2023/01/11 07:00:43;;;;;;;1.80;1.30;;;9.80;99.90;;;;;;5025271;28;20494;-72
2023/01/11 07:03:11;;;;;;;2.53;1.40;;;9.80;99.90;;;;;;5023887;28;20443;-72
2023/01/11 07:05:38;;;;;;;3.00;1.58;;;9.80;99.90;;;;;;5023821;28;20462;-70
2023/01/11 07:08:05;;;;;;;1.92;1.50;;;9.80;99.90;;;;;;5023431;28;20442;-70
2023/01/11 07:10:32;;;;;;;2.53;1.30;;;9.80;99.90;;;;;;5018722;28;20907;-70
2023/01/11 07:13:00;;;;;;;1.85;1.40;;;9.80;99.90;;;;;;5021474;28;20778;-70
2023/01/11 07:15:27;;;;;;;2.30;1.73;;;9.80;99.90;;;;;;5013129;28;20420;-70
2023/01/11 07:17:55;;;;;;;3.17;1.60;;;9.90;99.90;;;;;;5018256;28;20422;-69
2023/01/11 07:20:22;;;;;;;2.45;1.50;;;9.80;99.90;;;;;;5024472;28;20419;-70
2023/01/11 07:22:50;;;;;;;3.30;1.90;;;9.80;99.90;;;;;;5023210;28;20462;-70
2023/01/11 07:25:17;;;;;;;3.35;1.80;;;9.90;99.90;;;;;;5024967;28;20454;-71
2023/01/11 07:27:44;;;;;;;2.80;1.83;;;9.90;99.90;;;;;;5025164;28;20414;-73
2023/01/11 07:30:13;;;;;;;3.72;2.30;;;9.80;99.90;;;;;;5025791;28;20916;-71
2023/01/11 07:32:40;;;;;;;3.83;2.60;;;9.90;99.90;;;;;;5026643;28;20428;-71
2023/01/11 07:35:07;;;;;;;2.97;1.92;;;9.90;99.90;;;;;;5024835;28;20415;-72
2023/01/11 07:37:40;;;;;;;2.70;1.58;;;9.90;99.90;;;;;;5024045;28;20441;-73
2023/01/11 07:40:08;;;;;;;2.30;1.40;;;9.90;99.90;;;;;;5024989;28;20912;-72
2023/01/11 07:45:20;;;;;;;1.40;1.20;;;9.90;99.90;;;;;;5020177;28;20414;-71
2023/01/11 07:47:49;;;;;;;2.53;1.45;;;9.90;99.90;;;;;;5025232;28;20411;-72
2023/01/11 07:50:16;;;;;;;2.55;1.90;;;10.00;99.90;;;;;;5011627;28;21367;-71
2023/01/11 07:52:47;;;;;;;1.90;1.20;;;10.00;99.90;;;;;;5020573;28;20971;-71
2023/01/11 07:55:14;;;;;;;3.08;1.33;;;10.10;99.90;;;;;;5025328;28;20411;-71
2023/01/11 07:57:40;;;;;;;1.38;1.20;;;10.10;99.90;;;;;;5025545;28;20423;-71
2023/01/11 08:00:08;;;;;;;1.83;1.17;;;10.10;99.90;;;;;;5025101;28;20450;-74
2023/01/11 08:02:37;;;;;;;1.52;1.00;;;10.10;99.90;;;;;;5024036;28;20762;-71
2023/01/11 08:05:04;;;;;;;2.20;1.10;;;10.20;99.90;;;;;;5018718;28;20945;-70
2023/01/11 08:07:31;;;;;;;2.20;1.33;;;10.20;99.90;;;;;;5020924;28;20442;-71
2023/01/11 08:09:58;;;;;;;2.45;1.35;;;10.20;99.90;;;;;;5011660;28;20436;-70
2023/01/11 08:15:12;;;;;;;1.60;1.00;;;10.20;99.90;;;;;;5024529;28;20469;-71
2023/01/11 08:17:40;;;;;;;2.30;1.40;;;10.20;99.90;;;;;;5029362;28;20431;-70
2023/01/11 08:20:08;;;;;;;2.07;1.20;;;10.20;99.90;;;;;;5053806;23;21308;-73
2023/01/11 08:22:35;;;;;;;2.90;1.00;;;10.20;99.90;;;;;;5031037;28;20462;-73
2023/01/11 08:25:02;;;;;;;2.75;1.00;;;10.20;99.90;;;;;;5032126;28;20427;-73
2023/01/11 08:27:29;;;;;;;2.63;1.20;;;10.30;99.90;;;;;;5047534;28;20438;-75
2023/01/11 08:29:56;;;;;;;1.60;1.10;;;10.20;99.90;;;;;;5042885;28;20493;-73
2023/01/11 08:32:22;;;;;;;1.02;0.70;;;10.20;99.90;;;;;;5038499;28;20895;-72
2023/01/11 08:34:50;;;;;;;1.40;0.90;;;10.20;99.90;;;;;;5027875;28;20418;-72
2023/01/11 08:37:17;;;;;;;2.90;1.10;;;10.20;99.90;;;;;;5032713;28;20419;-72
2023/01/11 08:39:44;;;;;;;1.40;0.90;;;10.20;99.90;;;;;;5028914;28;20434;-72
2023/01/11 08:42:11;;;;;;;1.30;1.00;;;10.20;99.90;;;;;;5028706;28;20411;-72
2023/01/11 08:44:37;;;;;;;2.30;1.40;;;10.20;99.90;;;;;;5031567;28;20439;-72
2023/01/11 08:47:04;;;;;;;3.50;1.47;;;10.20;99.90;;;;;;5027794;28;20514;-72
2023/01/11 08:49:31;;;;;;;3.22;1.50;;;10.20;99.90;;;;;;5029793;28;20920;-72
2023/01/11 08:51:59;;;;;;;2.58;1.70;;;10.20;99.90;;;;;;5033046;28;20422;-73
2023/01/11 08:54:26;;;;;;;4.40;1.60;;;10.10;99.90;;;;;;5031276;28;20434;-73
2023/01/11 08:56:53;;;;;;;1.95;1.30;;;10.10;99.90;;;;;;5034975;28;20411;-72
2023/01/11 08:59:20;;;;;;;1.40;1.10;;;10.10;99.90;;;;;;5048515;28;20451;-73
2023/01/11 09:01:47;;;;;;;1.73;1.00;;;10.10;99.90;;;;;;5056188;28;20419;-73
2023/01/11 09:04:14;;;;;;;1.40;0.80;;;10.10;99.90;;;;;;5037481;28;20422;-73
2023/01/11 09:06:41;;;;;;;1.10;0.70;;;10.10;99.90;;;;;;5031623;28;20437;-73
2023/01/11 09:09:09;;;;;;;2.00;0.70;;;10.10;99.90;;;;;;5029585;28;20885;-73
2023/01/11 09:11:55;;;;;;;1.20;1.02;;;10.10;99.90;;;;;;5031230;28;20433;-73
2023/01/11 09:14:23;;;;;;;1.40;0.70;;;10.20;99.90;;;;;;5018625;28;20427;-73
2023/01/11 09:16:50;;;;;;;1.30;0.90;;;10.20;99.90;;;;;;5031659;28;20447;-73
2023/01/11 09:19:16;;;;;;;2.30;1.37;;;10.20;99.90;;;;;;5029261;28;20423;-73
2023/01/11 09:21:44;;;;;;;3.00;1.20;;;10.20;99.90;;;;;;5028895;28;20973;-73
2023/01/11 09:24:12;;;;;;;2.90;1.20;;;10.20;99.90;;;;;;5027992;28;21119;-73
2023/01/11 09:26:40;;;;;;;2.60;1.40;;;10.20;99.90;;;;;;5028116;28;20426;-73
2023/01/11 09:29:07;;;;;;;2.55;1.30;;;10.20;99.90;;;;;;5024616;28;20423;-73
2023/01/11 09:31:34;;;;;;;5.50;2.00;;;10.20;99.90;;;;;;5029544;28;20435;-75
2023/01/11 09:34:01;;;;;;;3.15;1.80;;;10.20;99.90;;;;;;5024561;28;20423;-73
2023/01/11 09:36:29;;;;;;;4.13;2.20;;;10.20;99.90;;;;;;5028767;28;20426;-73
2023/01/11 09:38:59;;;;;;;4.57;2.08;;;10.20;99.90;;;;;;5029132;28;20442;-73
2023/01/11 09:41:38;;;;;;;4.07;2.15;;;10.30;99.90;;;;;;5026252;28;20434;-73
2023/01/11 09:44:13;;;;;;;4.82;2.30;;;10.30;99.90;;;;;;5026520;28;20905;-73
2023/01/11 09:46:41;;;;;;;4.45;3.00;;;10.30;99.90;;;;;;5027423;28;20446;-73
2023/01/11 09:49:14;;;;;;;5.28;2.33;;;10.30;99.90;;;;;;5027999;28;20423;-74
2023/01/11 09:51:42;;;;;;;5.60;2.88;;;10.30;99.90;;;;;;5028353;28;20766;-74
2023/01/11 09:54:15;;;;;;;5.28;2.72;;;10.40;99.90;;;;;;5014199;28;20419;-74
2023/01/11 09:56:50;;;;;;;4.90;3.08;;;10.40;99.90;;;;;;5031234;28;20976;-73
2023/01/11 09:59:26;;;;;;;7.90;3.30;;;10.40;99.90;;;;;;5017732;28;20435;-74
2023/01/11 10:02:02;;;;;;;7.85;3.30;;;10.40;99.90;;;;;;5032847;28;20430;-74
2023/01/11 10:04:42;;;;;;;7.20;3.30;;;10.40;99.90;;;;;;5025580;28;20455;-73
2023/01/11 10:07:27;;;;;;;7.70;4.10;;;10.50;99.90;;;;;;5028302;28;20434;-74
2023/01/11 10:10:07;;;;;;;4.70;3.10;;;10.50;99.90;;;;;;5027941;28;20427;-74
2023/01/11 10:12:44;;;;;;;5.40;3.45;;;10.50;99.90;;;;;;5029704;28;20929;-75
2023/01/11 10:15:19;;;;;;;6.23;3.50;;;10.60;99.90;;;;;;5023221;28;20422;-74
2023/01/11 10:17:55;;;;;;;5.75;3.67;;;10.50;99.90;;;;;;5024355;28;20438;-73
2023/01/11 10:20:29;;;;;;;7.13;3.87;;;10.50;99.90;;;;;;5017032;28;20878;-74
2023/01/11 10:23:03;;;;;;;7.72;3.53;;;10.50;99.90;;;;;;5027979;28;20493;-74
2023/01/11 10:25:33;;;;;;;7.45;3.70;;;10.50;99.90;;;;;;5037488;28;20437;-73
2023/01/11 10:28:06;;;;;;;7.88;3.70;;;10.50;99.90;;;;;;5033227;28;20423;-74
2023/01/11 10:30:56;;;;;;;9.07;3.83;;;10.50;99.90;;;;;;5030641;28;20426;-74
2023/01/11 10:33:45;;;;;;;7.30;4.50;;;10.50;99.90;;;;;;5019854;28;20489;-74
2023/01/11 10:36:31;;;;;;;10.02;4.07;;;10.40;99.90;;;;;;5027538;28;20423;-74
2023/01/11 10:39:14;;;;;;;7.93;3.90;;;10.50;99.90;;;;;;5026986;28;20485;-73
2023/01/11 10:41:51;;;;;;;8.70;4.20;;;10.50;99.90;;;;;;5030194;28;20493;-72
2023/01/11 10:44:30;;;;;;;10.83;4.00;;;10.50;99.90;;;;;;5035783;28;20426;-72
2023/01/11 10:46:58;;;;;;;7.25;3.63;;;10.50;99.90;;;;;;5027640;28;20514;-74
2023/01/11 10:49:36;;;;;;;8.60;3.80;;;10.50;99.90;;;;;;5025040;28;20446;-72
2023/01/11 10:52:13;;;;;;;7.25;3.50;;;10.50;99.90;;;;;;5029311;28;20453;-73
2023/01/11 10:54:44;;;;;;;7.75;3.60;;;10.50;99.90;;;;;;5027495;28;20419;-72
2023/01/11 10:57:21;;;;;;;8.80;4.32;;;10.50;99.90;;;;;;5029809;28;20439;-73
2023/01/11 11:00:04;;;;;;;8.65;4.40;;;10.50;99.90;;;;;;5024367;28;20449;-72
2023/01/11 11:03:04;;;;;;;7.07;4.00;;;10.50;99.90;;;;;;5025835;28;20450;-72
2023/01/11 11:05:40;;;;;;;8.65;4.07;;;10.50;99.90;;;;;;5024647;28;20415;-74
2023/01/11 11:08:13;;;;;;;8.77;4.07;;;10.50;99.90;;;;;;5030658;28;20437;-72
2023/01/11 11:10:50;;;;;;;9.95;4.22;;;10.50;99.90;;;;;;5028946;28;20411;-75
2023/01/11 11:13:23;;;;;;;9.10;4.38;;;10.50;99.90;;;;;;5029699;28;20440;-75
2023/01/11 11:15:57;;;;;;;9.00;4.27;;;10.50;99.90;;;;;;5030389;28;20533;-73
2023/01/11 11:18:24;;;;;;;9.13;3.95;;;10.40;99.90;;;;;;5025790;28;20897;-72
2023/01/11 11:20:51;;;;;;;9.55;4.07;;;10.40;99.90;;;;;;5023597;28;20423;-73
2023/01/11 11:23:23;;;;;;;10.43;3.80;;;10.40;99.90;;;;;;5026677;28;20422;-73
2023/01/11 11:25:55;;;;;;;10.30;5.05;;;10.30;99.90;;;;;;5027017;28;20419;-73
2023/01/11 11:28:27;;;;;;;8.73;3.78;;;10.30;99.90;;;;;;5027518;28;20415;-74
2023/01/11 11:30:58;;;;;;;9.88;3.50;;;10.30;99.90;;;;;;5033491;28;20448;-74
2023/01/11 11:33:29;;;;;;;9.37;4.00;;;10.30;99.90;;;;;;5022477;28;20426;-74
2023/01/11 11:35:58;;;;;;;6.28;3.60;;;10.30;99.90;;;;;;5027514;28;20988;-74
2023/01/11 11:38:28;;;;;;;9.15;3.17;;;10.20;99.90;;;;;;5026845;28;20506;-74
2023/01/11 11:41:05;;;;;;;7.82;3.72;;;10.10;99.50;;;;;;5026698;28;20437;-74
2023/01/11 11:43:33;;;;;;;7.60;3.42;;;10.10;99.40;;;;;;5024164;28;20418;-74
2023/01/11 11:46:04;;;;;;;8.88;3.78;;;10.00;99.20;;;;;;5028452;28;20438;-74
2023/01/11 11:48:32;;;;;;;7.28;3.28;;;10.00;99.30;;;;;;5025482;28;20423;-73
2023/01/11 11:51:02;;;;;;;9.13;3.92;;;9.90;99.60;;;;;;5027589;28;20517;-75
2023/01/11 11:53:42;;;;;;;8.75;4.32;;;9.90;99.90;;;;;;5030436;28;20504;-74
2023/01/11 11:56:20;;;;;;;7.63;4.10;;;9.90;99.70;;;;;;5033149;28;20714;-73
2023/01/11 11:58:47;;;;;;;7.80;4.07;;;9.90;99.90;;;;;;5030350;28;20773;-74
2023/01/11 12:01:29;;;;;;;13.98;4.93;;;9.90;99.80;;;;;;5034041;28;20435;-74
2023/01/11 12:03:59;;;;;;;9.77;3.85;;;10.00;99.90;;;;;;5024639;28;20421;-75
2023/01/11 12:06:28;;;;;;;9.20;3.00;;;10.00;99.50;;;;;;5030727;28;20533;-74
2023/01/11 12:08:57;;;;;;;9.10;3.75;;;10.10;97.00;;;;;;5024003;28;20437;-74
2023/01/11 12:11:31;;;;;;;10.20;3.60;;;10.20;96.80;;;;;;5030713;28;20415;-75
2023/01/11 12:14:02;;;;;;;6.43;2.90;;;10.20;96.60;;;;;;5029789;28;20419;-73
2023/01/11 12:16:35;;;;;;;8.20;3.08;;;10.20;96.80;;;;;;5031260;28;20924;-73
2023/01/11 12:19:01;;;;;;;8.60;3.40;;;10.30;95.50;;;;;;5030179;28;20427;-72
2023/01/11 12:21:30;;;;;;;9.63;3.10;;;10.40;95.60;;;;;;5029636;28;20471;-73
2023/01/11 12:24:15;;;;;;;10.57;3.60;;;10.50;95.00;;;;;;5029131;28;20415;-72
2023/01/11 12:26:57;;;;;;;6.35;2.85;;;10.70;95.30;;;;;;5022971;28;20797;-74
2023/01/11 12:29:37;;;;;;;7.82;2.90;;;10.90;93.40;;;;;;5038422;28;20430;-73
2023/01/11 12:32:31;;;;;;;7.47;3.08;;;11.20;93.60;;;;;;5031828;28;20433;-73
2023/01/11 12:35:16;;;;;;;9.02;3.22;;;11.20;92.40;;;;;;5029848;28;20949;-73
2023/01/11 12:38:24;;;;;;;7.63;2.70;;;11.20;93.00;;;;;;5019870;28;20422;-72
2023/01/11 12:41:05;;;;;;;6.13;2.50;;;11.30;93.10;;;;;;4954699;29;20528;-74
2023/01/11 12:43:51;;;;;;;8.70;3.42;;;11.40;92.40;;;;;;5022311;28;20828;-74
2023/01/11 12:46:27;;;;;;;10.30;3.20;;;11.80;92.10;;;;;;5039605;28;21078;-72
2023/01/11 12:49:11;;;;;;;11.70;4.10;;;12.10;90.80;;;;;;5024195;28;20438;-71
2023/01/11 12:51:53;;;;;;;8.68;3.00;;;11.70;88.80;;;;;;5028454;28;20422;-73
2023/01/11 12:54:37;;;;;;;8.30;2.80;;;11.70;90.20;;;;;;5037187;28;20445;-73
2023/01/11 12:57:13;;;;;;;6.88;2.63;;;11.90;87.00;;;;;;5028779;28;20427;-72
2023/01/11 13:00:02;;;;;;;7.15;2.90;;;12.40;84.10;;;;;;5028833;28;20444;-72
2023/01/11 13:02:47;;;;;;;7.43;3.08;;;13.50;78.30;;;;;;5022863;28;20419;-74
2023/01/11 13:05:24;;;;;;;10.13;3.03;;;14.60;72.40;;;;;;5030853;28;20415;-72
2023/01/11 13:08:05;;;;;;;10.03;3.20;;;15.90;67.60;;;;;;5031920;28;20508;-72
2023/01/11 13:10:42;;;;;;;9.17;3.00;;;17.00;61.40;;;;;;5023765;28;20425;-69
2023/01/11 13:13:14;;;;;;;9.90;3.55;;;17.40;59.00;;;;;;5029359;28;20465;-70
2023/01/11 13:15:52;;;;;;;7.32;3.30;;;17.80;57.60;;;;;;5022469;28;20412;-70
2023/01/11 13:18:28;;;;;;;8.55;2.95;;;18.70;53.90;;;;;;5053673;28;20486;-66
2023/01/11 13:21:05;;;;;;;7.80;2.90;;;18.90;54.00;;;;;;5036618;28;21496;-69
2023/01/11 13:23:39;;;;;;;5.75;2.25;;;19.50;51.20;;;;;;5019554;28;20521;-71
2023/01/11 13:26:15;;;;;;;7.80;2.70;;;19.10;49.90;;;;;;5031391;28;20493;-69
2023/01/11 13:28:45;;;;;;;6.90;2.60;;;19.40;48.60;;;;;;5030538;28;20431;-70
2023/01/11 13:31:13;;;;;;;6.95;2.40;;;18.90;49.30;;;;;;5035818;28;20622;-69
2023/01/11 13:33:44;;;;;;;5.87;2.40;;;18.80;48.70;;;;;;5029919;28;20774;-69
2023/01/11 13:36:17;;;;;;;6.07;2.40;;;19.30;48.70;;;;;;5032207;28;20426;-70
2023/01/11 13:38:49;;;;;;;7.43;2.65;;;19.20;48.60;;;;;;5033126;28;20417;-70